AirNav   Everest Fuels
 
 467 users online  

4WN3 Lakewood Airpark
Lakewood, Wisconsin, USA

GOING TO LAKEWOOD?


FAA INFORMATION EFFECTIVE 22 APRIL 2021

Location

FAA Identifier: 4WN3
Lat/Long: 45-19-55.3867N 088-32-09.5858W
45-19.923112N 088-32.159763W
45.3320519,-88.5359961
(estimated)
Elevation: 1300 ft. / 396 m (estimated)
From city: 2 miles NNW of LAKEWOOD, WI
Time zone: UTC -5 (UTC -6 during Standard Time)
Zip code: 54138

Airport Operations

Airport use: Private use. Permission required prior to landing
Activation date: 09/2004
Control tower: no
ARTCC: MINNEAPOLIS CENTER
FSS: GREEN BAY FLIGHT SERVICE STATION
Attendance: UNATNDD
Wind indicator: yes
Segmented circle: no

Nearby radio navigation aids

VOR radial/distance  VOR name  Freq  Var
IMTr214/34.1IRON MOUNTAIN VOR/DME111.2002W
MNMr284/38.6MENOMINEE VOR/DME109.6000E

Airport Services

Runway Information

Runway 9/27

Dimensions: 2500 x 150 ft. / 762 x 46 m
Surface: turf
RUNWAY 9  RUNWAY 27
Traffic pattern: leftleft

Airport Ownership and Management from official FAA records

Ownership: Privately-owned
Owner: LAKEWOOD AIRPARK LLC
15605 MAIDEN LAKE RD
MOUNTAIN, WI 54149
Manager: PHIL HARTMAN
15605 MAIDEN LAKE RD
MOUNTAIN, WI 54149
Phone 715-850-1206

Additional Remarks

FOR CD CTC MINNEAPOLIS ARTCC AT 651-463-5588.

Instrument Procedures

There are no published instrument procedures at 4WN3.

Some nearby airports with instrument procedures:

Y55 - Crandon/Steve Conway Municipal Airport (20 nm NW)
KAIG - Langlade County Airport (27 nm SW)
KEZS - Shawano Municipal Airport (33 nm S)
KIMT - Ford Airport (34 nm NE)
KOCQ - Oconto-J Douglas Bake Municipal Airport (38 nm SE)
 
Loc | Ops | Rwys | IFR | FBO | Links
Com | Nav | Svcs | Stats | Notes
Area around 4WN3 (Lakewood Airpark)
 
Road maps at: MapQuest Bing Google
 
Aerial photo
WARNING: Photo may not be current or correct
Aerial photo of 4WN3 (Lakewood Airpark)
Photo by William Knauth
looking west.

Do you have a better or more recent aerial photo of Lakewood Airpark that you would like to share? If so, please send us your photo.

 
Sectional chart

 
Airport distance calculator
Flying to Lakewood Airpark? Find the distance to fly.

From to 4WN3

Sunrise and sunset
Times for 12-May-2021
 Local
(UTC-5)
 Zulu
(UTC)
Morning civil twilight04:5409:54
Sunrise05:2910:29
Sunset20:1201:12
Evening civil twilight20:4701:47

Current date and time
Zulu (UTC)  12-May-2021 06:11:48
Local (UTC-5)  12-May-2021 01:11:48
 
METAR
KAIG 
32nm SW 
120555Z AUTO 00000KT 10SM CLR 00/M01 A3039 RMK AO2 T00041013 10111 21004
KEZS 
33nm S 
715-526-2967
120555Z AUTO 00000KT 10SM CLR 02/M01 A3040 RMK AO2 T00241014 10143 20024 401540010
KIMT 
34nm NE 
120554Z AUTO 00000KT 10SM CLR M01/M05 A3038 RMK AO2 SLP299 T10061050 10128 21011 401391022 50001
KOCQ 
38nm SE 
120555Z AUTO 00000KT 10SM CLR 02/00 A3041 RMK AO1 T00150000 10115 20008 401420000
KMNM 
41nm E 
120556Z AUTO 00000KT 10SM CLR 01/M01 A3042 RMK AO2 SLP305 T00111006 10106 20011 401280011 51003 FZRANO $
KRHI 
44nm NW 
120553Z AUTO 00000KT 10SM CLR M03/M07 A3039 RMK AO2 SLP308 T10281067 10117 21028 401281050 58000
KCLI 
45nm S 
120555Z AUTO 00000KT 10SM CLR 03/M01 A3040 RMK AO2 T00261015 10137 20022
KEGV 
47nm NW 
120555Z AUTO 00000KT 10SM CLR M03/M05 A3039 RMK AO2 T10261048 10110 21027 401241048
TAF
KRHI 
44nm NW 
120520Z 1206/1306 00000KT P6SM SKC FM121600 25005KT P6SM SCT080 FM122300 22003KT P6SM SKC
NOTAMs
Click for the latest NOTAMs
NOTAMs are issued by the DoD/FAA and will open in a separate window not controlled by AirNav.

 

 
 

Would you like to see your business listed on this page?

 If your business provides an interesting product or service to pilots, flight crews, aircraft, or users of the Lakewood Airpark, you should consider listing it here.  To start the listing process, click on the button below
 
Add a business
 

Other Pages about Lakewood Airpark

Update a link
 
Copyright © AirNav, LLC. All rights reserved. Privacy Policy  Contact